.
WxDataArchive / Data Records for 2009-06-09
2009-06-08 June 2009 2009-06-10

Data Records for Tuesday, 09 June 2009

Time	Temp	Chill	HIndex	Humid	Dewpt	 Wind 	HiWind	WindDir	Rain 	Barom 
-----	----	-----	------	-----	-----	------	------	-------	-----	----- 
00:00	66.8	66.8	66.8	92	64.4	0	1	248	0.00	29.807 
00:05	66.9	66.9	66.9	93	64.8	0	0	---	0.00	29.807 
00:10	66.9	66.9	66.9	93	64.8	0	1	248	0.00	29.807 
00:15	66.9	66.9	66.9	93	64.8	0	0	---	0.00	29.808 
00:20	66.9	66.9	66.9	93	64.8	0	1	248	0.00	29.808 
00:25	66.8	66.8	66.8	93	64.7	0	0	---	0.00	29.808 
00:30	66.9	66.9	66.9	94	65.1	0	0	---	0.00	29.806 
00:35	66.9	66.9	66.9	94	65.1	0	0	---	0.00	29.806 
00:40	67.1	67.1	67.1	94	65.3	0	0	---	0.00	29.806 
00:45	67.4	67.4	67.4	94	65.6	0	0	---	0.00	29.820 
00:50	67.6	67.6	67.6	94	65.8	0	0	---	0.00	29.820 
00:55	67.6	67.6	67.6	94	65.8	0	1	248	0.00	29.820 
01:00	67.6	67.6	67.6	94	65.8	0	1	248	0.00	29.818 
01:05	67.6	67.6	67.6	94	65.8	0	0	---	0.00	29.818 
01:10	67.6	67.6	67.6	94	65.8	0	0	---	0.00	29.818 
01:15	67.4	67.4	67.4	94	65.6	0	0	---	0.00	29.822 
01:20	67.3	67.3	67.3	94	65.5	0	0	---	0.00	29.822 
01:25	67.1	67.1	67.1	94	65.3	0	0	---	0.00	29.822 
01:30	66.8	66.8	66.8	94	65.0	0	0	---	0.00	29.823 
01:35	66.6	66.6	66.6	94	64.8	0	0	---	0.00	29.823 
01:40	66.4	66.4	66.4	94	64.6	0	0	---	0.00	29.823 
01:45	66.3	66.3	66.3	94	64.5	0	0	---	0.00	29.827 
01:50	66.1	66.1	66.1	94	64.3	0	0	---	0.00	29.827 
01:55	66.0	66.0	66.0	94	64.2	0	0	---	0.00	29.827 
02:00	65.8	65.8	65.8	94	64.0	0	0	---	0.00	29.828 
02:05	65.6	65.6	65.6	94	63.8	0	0	---	0.00	29.828 
02:10	65.3	65.3	65.3	94	63.5	0	0	---	0.00	29.828 
02:15	65.2	65.2	65.2	94	63.4	0	0	---	0.00	29.833 
02:20	65.2	65.2	65.2	94	63.4	0	0	---	0.00	29.833 
02:25	65.0	65.0	65.0	94	63.2	0	0	---	0.00	29.833 
02:30	64.8	64.8	64.8	94	63.0	0	0	---	0.00	29.837 
02:35	64.7	64.7	64.7	94	62.9	0	0	---	0.00	29.837 
02:40	64.5	64.5	64.5	94	62.7	0	0	---	0.00	29.837 
02:45	64.2	64.2	64.2	94	62.4	0	0	---	0.00	29.831 
02:50	64.0	64.0	64.0	94	62.2	0	0	---	0.00	29.831 
02:55	63.9	63.9	63.9	94	62.1	0	0	---	0.00	29.831 
03:00	63.7	63.7	63.7	94	61.9	0	0	---	0.00	29.830 
03:05	63.4	63.4	63.4	94	61.6	0	0	---	0.00	29.830 
03:10	63.2	63.2	63.2	94	61.4	0	0	---	0.00	29.830 
03:15	63.1	63.1	63.1	94	61.3	0	0	---	0.00	29.835 
03:20	62.9	62.9	62.9	94	61.1	0	0	---	0.00	29.835 
03:25	62.7	62.7	62.7	94	60.9	0	0	---	0.00	29.835 
03:30	62.6	62.6	62.6	95	61.1	0	0	---	0.00	29.836 
03:35	62.4	62.4	62.4	95	60.9	0	0	---	0.00	29.836 
03:40	62.3	62.3	62.3	94	60.5	0	0	---	0.00	29.836 
03:45	62.3	62.3	62.3	95	60.8	0	0	---	0.00	29.837 
03:50	62.3	62.3	62.3	95	60.8	0	0	---	0.00	29.837 
03:55	62.1	62.1	62.1	95	60.6	0	0	---	0.00	29.837 
04:00	62.1	62.1	62.1	95	60.6	0	0	---	0.00	29.829 
04:05	61.8	61.8	61.8	95	60.3	0	0	---	0.00	29.829 
04:10	61.5	61.5	61.5	95	60.1	0	0	---	0.00	29.829 
04:15	61.3	61.3	61.3	95	59.9	0	0	---	0.00	29.831 
04:20	61.3	61.3	61.3	95	59.9	0	0	---	0.00	29.831 
04:25	61.2	61.2	61.2	95	59.8	0	0	---	0.00	29.831 
04:30	61.0	61.0	61.0	95	59.6	0	0	---	0.00	29.840 
04:35	60.7	60.7	60.7	95	59.3	0	0	---	0.00	29.840 
04:40	60.5	60.5	60.5	95	59.1	0	0	---	0.00	29.840 
04:45	60.5	60.5	60.5	95	59.1	0	0	---	0.00	29.842 
04:50	60.4	60.4	60.4	95	59.0	0	0	---	0.00	29.842 
04:55	60.4	60.4	60.4	95	59.0	0	0	---	0.00	29.842 
05:00	60.2	60.2	60.2	95	58.8	0	0	---	0.00	29.841 
05:05	60.1	60.1	60.1	95	58.7	0	0	---	0.00	29.841 
05:10	60.1	60.1	60.1	95	58.7	0	0	---	0.00	29.841 
05:15	60.1	60.1	60.1	95	58.7	0	0	---	0.00	29.845 
05:20	60.1	60.1	60.1	95	58.7	0	0	---	0.00	29.845 
05:25	60.1	60.1	60.1	95	58.7	0	0	---	0.00	29.845 
05:30	60.2	60.2	60.2	95	58.8	0	1	248	0.00	29.850 
05:35	60.2	60.2	60.2	95	58.8	0	1	248	0.00	29.850 
05:40	60.1	60.1	60.1	95	58.7	0	0	---	0.00	29.850 
05:45	60.1	60.1	60.1	95	58.7	0	0	---	0.00	29.859 
05:50	60.1	60.1	60.1	95	58.7	0	0	---	0.00	29.859 
05:55	60.1	60.1	60.1	95	58.7	0	1	248	0.00	29.859 
06:00	60.1	60.1	60.1	95	58.7	0	1	248	0.00	29.861 
06:05	60.1	60.1	60.1	95	58.7	0	1	248	0.00	29.861 
06:10	59.9	59.9	59.9	95	58.5	0	2	248	0.00	29.861 
06:15	59.9	59.9	59.9	95	58.5	0	1	248	0.00	29.873 
06:20	59.6	59.6	59.6	94	57.9	0	1	248	0.00	29.873 
06:25	59.5	59.5	59.5	94	57.8	0	2	248	0.00	29.873 
06:30	59.5	59.5	59.5	94	57.8	0	1	248	0.00	29.876 
06:35	59.5	59.5	59.5	93	57.5	0	1	248	0.00	29.876 
06:40	59.5	59.5	59.5	93	57.5	0	1	248	0.00	29.876 
06:45	59.3	59.3	59.3	93	57.3	0	0	---	0.00	29.885 
06:50	59.3	59.3	59.3	92	57.0	0	0	---	0.00	29.885 
06:55	59.3	59.3	59.3	92	57.0	0	0	---	0.00	29.885 
07:00	59.5	59.5	59.5	92	57.2	0	0	---	0.00	29.892 
07:05	59.5	59.5	59.5	92	57.2	0	1	248	0.00	29.892 
07:10	59.5	59.5	59.5	92	57.2	0	0	---	0.00	29.892 
07:15	59.6	59.6	59.6	92	57.3	0	0	---	0.00	29.903 
07:20	59.8	59.8	59.8	92	57.5	0	0	---	0.00	29.903 
07:25	59.9	59.9	59.9	92	57.6	0	1	248	0.00	29.903 
07:30	60.1	60.1	60.1	91	57.5	0	2	248	0.00	29.909 
07:35	60.2	60.2	60.2	91	57.6	0	1	248	0.00	29.909 
07:40	60.2	60.2	60.2	90	57.3	0	1	248	0.00	29.909 
07:45	60.2	60.2	60.2	90	57.3	0	1	248	0.00	29.918 
07:50	60.4	60.4	60.4	90	57.4	0	0	---	0.00	29.918 
07:55	60.4	60.4	60.4	90	57.4	0	1	248	0.00	29.918 
08:00	60.4	60.4	60.4	90	57.4	0	1	248	0.00	29.922 
08:05	60.2	60.2	60.2	89	56.9	0	3	248	0.00	29.922 
08:10	60.2	60.2	60.2	89	56.9	0	1	248	0.00	29.922 
08:15	60.4	60.4	60.4	90	57.4	0	0	---	0.00	29.923 
08:20	60.7	60.7	60.7	89	57.4	0	0	---	0.00	29.923 
08:25	60.9	60.9	60.9	89	57.6	0	1	248	0.00	29.923 
08:30	61.3	61.3	61.3	88	57.7	0	1	248	0.00	29.926 
08:35	61.8	61.8	61.8	88	58.2	0	3	68	0.00	29.926 
08:40	62.1	62.1	62.1	87	58.2	0	1	68	0.00	29.926 
08:45	62.4	62.4	62.4	87	58.5	0	2	68	0.00	29.925 
08:50	62.6	62.6	62.6	85	58.0	0	2	68	0.00	29.925 
08:55	63.2	63.2	63.2	85	58.6	0	3	68	0.00	29.925 
09:00	63.2	63.2	63.2	83	57.9	0	2	292	0.00	29.926 
09:05	63.2	63.2	63.2	83	57.9	0	1	292	0.00	29.926 
09:10	63.5	63.5	63.5	82	57.9	0	2	292	0.00	29.926 
09:15	63.7	63.7	63.7	81	57.8	0	2	292	0.00	29.936 
09:20	64.0	64.0	64.0	82	58.4	0	1	292	0.00	29.936 
09:25	64.3	64.3	64.3	82	58.7	0	2	292	0.00	29.936 
09:30	64.7	64.7	64.7	82	59.1	0	1	292	0.00	29.930 
09:35	65.0	65.0	65.0	80	58.7	0	2	292	0.00	29.930 
09:40	65.0	65.0	65.0	78	58.0	0	2	292	0.00	29.930 
09:45	65.6	65.6	65.6	79	58.9	0	2	292	0.00	29.932 
09:50	66.0	66.0	66.0	79	59.3	0	2	292	0.00	29.932 
09:55	66.3	66.3	66.3	78	59.2	0	3	68	0.00	29.932 
10:00	67.1	67.1	67.1	78	60.0	1	3	68	0.00	29.932 
10:05	67.6	67.6	67.6	77	60.1	0	2	90	0.00	29.932 
10:10	67.6	67.6	67.6	76	59.8	0	2	90	0.00	29.932 
10:15	67.3	67.3	67.3	75	59.1	0	1	90	0.00	29.939 
10:20	67.3	67.3	67.3	76	59.5	0	2	90	0.00	29.939 
10:25	67.3	67.3	67.3	76	59.5	0	1	90	0.00	29.939 
10:30	67.3	67.3	67.3	76	59.5	0	2	315	0.00	29.941 
10:35	67.6	67.6	67.6	75	59.4	0	3	315	0.00	29.941 
10:40	67.9	67.9	67.9	74	59.3	1	2	315	0.00	29.941 
10:45	67.9	67.9	67.9	74	59.3	1	4	315	0.00	29.936 
10:50	67.9	67.9	67.9	74	59.3	1	4	292	0.00	29.936 
10:55	68.4	68.4	68.4	75	60.2	0	2	315	0.00	29.936 
11:00	68.4	68.4	68.4	74	59.8	1	3	315	0.00	29.941 
11:05	68.6	68.6	68.6	73	59.6	1	3	315	0.00	29.941 
11:10	68.8	68.8	68.8	73	59.8	1	2	315	0.00	29.941 
11:15	68.8	68.8	68.8	73	59.8	1	4	270	0.00	29.946 
11:20	68.6	68.6	68.6	73	59.6	0	2	270	0.00	29.946 
11:25	68.4	68.4	68.4	74	59.8	0	2	270	0.00	29.946 
11:30	68.3	68.3	68.3	75	60.1	0	2	270	0.00	29.957 
11:35	67.9	67.9	67.9	73	58.9	1	3	270	0.00	29.957 
11:40	67.6	67.6	67.6	75	59.4	0	3	292	0.00	29.957 
11:45	67.3	67.3	67.3	75	59.1	1	3	292	0.00	29.964 
11:50	67.1	67.1	67.1	77	59.6	0	2	292	0.00	29.964 
11:55	67.1	67.1	67.1	75	58.9	1	4	292	0.00	29.964 
12:00	67.4	67.4	67.4	74	58.8	0	2	270	0.00	29.963 
12:05	68.1	68.1	68.1	75	59.9	1	3	292	0.00	29.963 
12:10	68.9	68.9	68.9	71	59.1	2	5	292	0.00	29.963 
12:15	69.6	69.6	69.6	70	59.4	1	2	315	0.00	29.957 
12:20	70.6	70.6	70.6	73	61.5	1	2	315	0.00	29.957 
12:25	70.8	70.8	70.8	68	59.7	0	2	315	0.00	29.957 
12:30	70.8	70.8	70.8	69	60.1	0	2	315	0.00	29.954 
12:35	70.9	70.9	70.9	69	60.2	0	2	315	0.00	29.954 
12:40	71.5	71.5	71.5	69	60.8	1	3	292	0.00	29.954 
12:45	71.6	71.6	71.6	66	59.6	1	3	292	0.00	29.951 
12:50	72.1	72.1	72.1	66	60.1	1	3	315	0.00	29.951 
12:55	72.5	72.5	72.5	65	60.0	1	2	315	0.00	29.951 
13:00	72.8	72.8	72.8	64	59.9	1	3	315	0.00	29.951 
13:05	72.8	72.8	72.8	64	59.9	0	2	270	0.00	29.951 
13:10	72.8	72.8	72.8	61	58.6	1	3	315	0.00	29.951 
13:15	73.0	73.0	73.0	62	59.2	2	3	292	0.00	29.947 
13:20	73.3	73.3	73.3	60	58.6	1	5	270	0.00	29.947 
13:25	73.5	73.5	73.5	61	59.2	1	4	248	0.00	29.947 
13:30	73.9	73.9	73.9	62	60.0	1	4	292	0.00	29.943 
13:35	73.9	73.9	73.9	59	58.7	1	3	315	0.00	29.943 
13:40	73.3	73.3	73.3	59	58.1	1	3	315	0.00	29.943 
13:45	73.7	73.7	73.7	61	59.4	1	3	292	0.00	29.939 
13:50	74.0	74.0	74.0	62	60.1	0	2	292	0.00	29.939 
13:55	74.6	74.6	74.6	59	59.3	1	3	292	0.00	29.939 
14:00	74.7	74.7	74.7	57	58.4	1	3	292	0.00	29.933 
14:05	74.7	74.7	74.7	58	58.9	1	4	315	0.00	29.933 
14:10	74.6	74.6	74.6	58	58.8	0	3	315	0.00	29.933 
14:15	74.6	74.6	74.6	58	58.8	0	2	315	0.00	29.924 
14:20	75.3	75.3	77.7	55	58.0	1	3	315	0.00	29.924 
14:25	75.4	75.4	77.7	56	58.6	1	3	315	0.00	29.924 
14:30	75.3	75.3	77.6	59	60.0	1	3	270	0.00	29.924 
14:35	75.4	75.4	77.7	58	59.6	0	2	315	0.00	29.924 
14:40	75.8	75.8	77.9	59	60.4	0	3	315	0.00	29.924 
14:45	75.8	75.8	78.0	55	58.5	1	4	292	0.00	29.923 
14:50	75.4	75.4	77.7	57	59.1	0	1	292	0.00	29.923 
14:55	75.3	75.3	77.7	56	58.5	1	3	270	0.00	29.923 
15:00	75.1	75.1	77.6	54	57.3	2	4	270	0.00	29.924 
15:05	75.6	75.6	77.9	54	57.8	1	4	338	0.00	29.924 
15:10	75.4	75.4	77.8	54	57.6	1	3	292	0.00	29.924 
15:15	75.4	75.4	77.8	54	57.6	1	3	292	0.00	29.927 
15:20	76.0	76.0	78.0	58	60.1	0	2	248	0.00	29.927 
15:25	75.8	75.8	78.0	53	57.4	1	3	292	0.00	29.927 
15:30	76.3	76.3	78.3	56	59.4	1	2	292	0.00	29.931 
15:35	76.5	76.5	78.4	54	58.6	1	4	315	0.00	29.931 
15:40	76.5	76.5	78.4	54	58.6	1	3	315	0.00	29.931 
15:45	76.7	76.7	78.5	54	58.8	0	2	292	0.00	29.926 
15:50	77.2	77.2	78.8	53	58.7	1	3	292	0.00	29.926 
15:55	77.0	77.0	78.7	53	58.5	1	4	270	0.00	29.926 
16:00	76.8	76.8	78.6	54	58.9	1	2	292	0.00	29.928 
16:05	76.1	76.1	78.1	53	57.7	1	2	292	0.00	29.928 
16:10	76.0	76.0	78.1	56	59.2	1	4	292	0.00	29.928 
16:15	76.5	76.5	78.4	56	59.6	1	4	270	0.00	29.941 
16:20	76.5	76.5	78.4	53	58.1	2	3	315	0.00	29.941 
16:25	76.1	76.1	78.1	54	58.2	1	4	315	0.00	29.941 
16:30	75.6	75.6	77.8	55	58.3	0	2	315	0.00	29.942 
16:35	75.6	75.6	77.8	55	58.3	0	2	315	0.00	29.942 
16:40	75.4	75.4	77.7	55	58.1	1	3	292	0.00	29.942 
16:45	76.0	76.0	78.1	56	59.2	0	2	292	0.00	29.926 
16:50	76.3	76.3	78.3	55	58.9	0	2	315	0.00	29.926 
16:55	76.7	76.7	78.5	55	59.3	1	3	270	0.00	29.926 
17:00	77.0	77.0	78.7	54	59.1	1	3	270	0.00	29.928 
17:05	77.4	77.4	78.9	53	58.9	0	2	270	0.00	29.928 
17:10	77.7	77.7	79.1	51	58.1	1	3	270	0.00	29.928 
17:15	77.7	77.7	79.1	51	58.1	0	4	270	0.00	29.920 
17:20	77.4	77.4	78.9	53	58.9	1	3	315	0.00	29.920 
17:25	77.4	77.4	78.9	53	58.9	1	3	292	0.00	29.920 
17:30	77.2	77.2	78.7	51	57.6	0	2	292	0.00	29.914 
17:35	77.2	77.2	78.8	53	58.7	0	2	292	0.00	29.914 
17:40	76.8	76.8	78.6	54	58.9	0	2	292	0.00	29.914 
17:45	76.8	76.8	78.5	52	57.8	0	2	292	0.00	29.915 
17:50	77.0	77.0	78.7	53	58.5	1	4	292	0.00	29.915 
17:55	76.8	76.8	78.6	54	58.9	1	3	270	0.00	29.915 
18:00	76.7	76.7	78.5	54	58.8	1	3	292	0.00	29.918 
18:05	76.5	76.5	78.4	54	58.6	0	2	292	0.00	29.918 
18:10	76.5	76.5	78.4	53	58.1	1	2	292	0.00	29.918 
18:15	76.0	76.0	78.1	55	58.6	0	1	292	0.00	29.922 
18:20	75.8	75.8	78.0	55	58.5	0	2	292	0.00	29.922 
18:25	75.6	75.6	77.8	55	58.3	1	2	292	0.00	29.922 
18:30	75.4	75.4	77.7	55	58.1	1	3	270	0.00	29.928 
18:35	75.3	75.3	77.7	56	58.5	1	4	292	0.00	29.928 
18:40	75.3	75.3	77.7	55	58.0	1	3	292	0.00	29.928 
18:45	75.1	75.1	77.6	56	58.3	1	3	315	0.00	29.932 
18:50	74.7	74.7	74.7	55	57.4	1	4	270	0.00	29.932 
18:55	74.4	74.4	74.4	56	57.7	1	2	270	0.00	29.932 
19:00	74.0	74.0	74.0	57	57.8	0	2	338	0.00	29.943 
19:05	73.9	73.9	73.9	58	58.2	0	2	338	0.00	29.943 
19:10	73.7	73.7	73.7	58	58.0	0	2	338	0.00	29.943 
19:15	73.7	73.7	73.7	58	58.0	1	3	292	0.00	29.940 
19:20	73.3	73.3	73.3	57	57.1	1	3	248	0.00	29.940 
19:25	73.2	73.2	73.2	58	57.5	0	1	248	0.00	29.940 
19:30	73.2	73.2	73.2	60	58.5	0	1	248	0.00	29.943 
19:35	73.0	73.0	73.0	59	57.8	0	1	248	0.00	29.943 
19:40	72.8	72.8	72.8	60	58.1	0	1	248	0.00	29.943 
19:45	72.7	72.7	72.7	61	58.5	0	1	248	0.00	29.942 
19:50	72.5	72.5	72.5	61	58.3	0	1	248	0.00	29.942 
19:55	72.1	72.1	72.1	61	57.9	0	0	---	0.00	29.942 
20:00	72.0	72.0	72.0	62	58.3	0	1	248	0.00	29.936 
20:05	71.6	71.6	71.6	61	57.4	0	1	248	0.00	29.936 
20:10	71.5	71.5	71.5	63	58.2	0	0	---	0.00	29.936 
20:15	71.3	71.3	71.3	63	58.0	0	0	---	0.00	29.931 
20:20	70.9	70.9	70.9	62	57.2	0	0	---	0.00	29.931 
20:25	70.8	70.8	70.8	63	57.6	0	1	248	0.00	29.931 
20:30	70.4	70.4	70.4	64	57.6	0	0	---	0.00	29.929 
20:35	70.3	70.3	70.3	64	57.5	0	0	---	0.00	29.929 
20:40	70.1	70.1	70.1	65	57.8	0	0	---	0.00	29.929 
20:45	69.8	69.8	69.8	65	57.5	0	0	---	0.00	29.927 
20:50	69.6	69.6	69.6	66	57.7	0	0	---	0.00	29.927 
20:55	69.3	69.3	69.3	67	57.9	0	0	---	0.00	29.927 
21:00	69.1	69.1	69.1	66	57.3	0	0	---	0.00	29.928 
21:05	68.8	68.8	68.8	68	57.8	0	1	248	0.00	29.928 
21:10	68.4	68.4	68.4	68	57.4	0	1	248	0.00	29.928 
21:15	68.1	68.1	68.1	69	57.5	0	1	248	0.00	29.921 
21:20	67.9	67.9	67.9	69	57.3	0	0	---	0.00	29.921 
21:25	67.6	67.6	67.6	70	57.5	0	0	---	0.00	29.921 
21:30	67.4	67.4	67.4	70	57.3	0	1	248	0.00	29.930 
21:35	67.1	67.1	67.1	71	57.4	0	0	---	0.00	29.930 
21:40	66.9	66.9	66.9	70	56.8	0	1	248	0.00	29.930 
21:45	66.8	66.8	66.8	71	57.1	0	1	248	0.00	29.940 
21:50	66.4	66.4	66.4	72	57.1	0	1	248	0.00	29.940 
21:55	66.1	66.1	66.1	71	56.4	0	1	248	0.00	29.940 
22:00	66.0	66.0	66.0	72	56.7	0	1	248	0.00	29.943 
22:05	65.6	65.6	65.6	72	56.3	0	1	248	0.00	29.943 
22:10	65.3	65.3	65.3	72	56.0	0	1	248	0.00	29.943 
22:15	65.2	65.2	65.2	72	55.9	0	1	248	0.00	29.946 
22:20	64.8	64.8	64.8	73	55.9	0	1	248	0.00	29.946 
22:25	64.5	64.5	64.5	73	55.6	0	4	248	0.00	29.946 
22:30	64.3	64.3	64.3	73	55.5	0	1	270	0.00	29.954 
22:35	63.9	63.9	63.9	73	55.1	0	1	270	0.00	29.954 
22:40	63.5	63.5	63.5	74	55.1	0	2	270	0.00	29.954 
22:45	63.2	63.2	63.2	75	55.1	0	1	270	0.00	29.955 
22:50	62.9	62.9	62.9	76	55.2	0	1	270	0.00	29.955 
22:55	62.6	62.6	62.6	77	55.3	0	1	270	0.00	29.955 
23:00	62.3	62.3	62.3	77	55.0	0	1	270	0.00	29.958 
23:05	62.0	62.0	62.0	77	54.7	0	2	270	0.00	29.958 
23:10	61.6	61.6	61.6	78	54.7	0	1	270	0.00	29.958 
23:15	61.3	61.3	61.3	78	54.4	0	1	270	0.00	29.950 
23:20	61.2	61.2	61.2	79	54.6	0	2	202	0.00	29.950 
23:25	60.9	60.9	60.9	79	54.3	0	1	202	0.00	29.950 
23:30	60.7	60.7	60.7	80	54.5	0	1	202	0.00	29.953 
23:35	60.5	60.5	60.5	80	54.3	0	3	135	0.00	29.953 
23:40	60.2	60.2	60.2	81	54.3	0	1	135	0.00	29.953 
23:45	60.1	60.1	60.1	81	54.2	0	0	---	0.00	29.963 
23:50	59.9	59.9	59.9	81	54.1	0	0	---	0.00	29.963 
23:55	59.6	59.6	59.6	81	53.8	0	0	---	0.00	29.963 

CoCoRaHS
IN-AL-39
A2 Web Hosting
Creative Commons License
GoDaddy
search engine by freefind advanced

loaded 2018-11-17 12:15:19 • last modified 2010-11-18 10:43:29
Privacy PolicyDisclaimer
• wx.awcolley.com is powered by PmWiki v.2002016 •
• all content (unless otherwise noted) © 2018 A W Colley